Clovis ASC Data

Date Time Air Temperature Relative Humidity Dewpoint Windchill Heat Index Wind Speed Wind Dir. Rain Solar Radiation Soil Temperature Soil Temperature
2m 2m 3m 3m 5cm 10cm
US/Mountain F % F F F MPH deg in MJ/m^2 F F
max avg avg
2021-06-11 00:05:00 79.5 51.2 60.0 79.5 79.5 9.6 12.6 9.1 181.2 162.4 0.00 0.0000000 83.3 85.4
2021-06-11 00:10:00 79.3 52.2 60.2 79.3 79.3 9.7 12.1 9.2 170.9 166.4 0.00 0.0000000 83.2 85.4
2021-06-11 00:15:00 79.0 52.8 60.3 79.0 79.0 7.8 11.2 8.9 171.8 168.5 0.00 0.0000000 83.1 85.3
2021-06-11 00:20:00 78.3 54.8 60.7 78.3 78.3 9.4 9.4 7.7 171.8 167.8 0.00 0.0000000 83.1 85.2
2021-06-11 00:25:00 78.1 55.8 61.0 78.1 78.1 7.4 10.6 8.4 175.7 169.2 0.00 0.0000000 83.0 85.1
2021-06-11 00:30:00 77.8 56.6 61.1 77.8 77.8 10.5 11.0 8.9 178.7 174.1 0.00 0.0000000 82.9 85.0
2021-06-11 00:35:00 77.6 56.8 61.0 77.6 77.6 9.4 12.6 9.3 158.4 174.3 0.00 0.0000000 82.7 84.9
2021-06-11 00:40:00 77.5 57.7 61.3 77.5 77.5 10.3 11.3 9.6 174.1 175.9 0.00 0.0000000 82.6 84.8
2021-06-11 00:45:00 77.4 57.8 61.4 77.4 77.4 10.8 11.5 9.8 186.7 177.3 0.00 0.0000000 82.5 84.7
2021-06-11 00:50:00 77.3 57.9 61.4 77.3 77.3 9.9 13.5 10.6 182.2 182.6 0.00 0.0000000 82.4 84.7
2021-06-11 00:55:00 77.1 58.4 61.4 77.1 77.1 8.5 11.7 9.9 182.8 184.0 0.00 0.0000000 82.3 84.6
2021-06-11 01:00:00 77.1 58.8 61.6 77.1 77.1 11.9 13.9 11.3 186.3 183.7 0.00 0.0000000 82.2 84.5
2021-06-11 01:05:00 77.0 58.8 61.5 77.0 77.0 11.3 13.3 10.7 198.3 187.1 0.00 0.0000000 82.1 84.4
2021-06-11 01:10:00 77.1 58.6 61.5 77.1 77.1 10.8 14.6 11.6 190.7 187.4 0.00 0.0000000 82.0 84.3
2021-06-11 01:15:00 77.1 59.1 61.7 77.1 77.1 13.5 14.2 11.8 189.5 188.4 0.00 0.0000000 81.9 84.2
2021-06-11 01:20:00 77.0 59.3 61.7 77.0 77.0 13.1 13.1 11.5 190.0 187.5 0.00 0.0000000 81.8 84.1
2021-06-11 01:25:00 76.4 60.3 61.6 76.4 76.4 8.8 12.4 9.9 187.0 188.9 0.00 0.0000000 81.7 84.1
2021-06-11 01:30:00 76.1 60.9 61.7 76.1 76.1 9.4 12.8 10.4 179.6 189.2 0.00 0.0000000 81.6 84.0
2021-06-11 01:35:00 75.5 61.8 61.5 75.5 75.5 8.1 11.2 9.3 191.2 189.8 0.00 0.0000000 81.5 83.9
2021-06-11 01:40:00 75.0 62.8 61.5 75.0 75.0 8.0 9.7 8.6 209.7 195.2 0.00 0.0000000 81.4 83.8
2021-06-11 01:45:00 74.4 64.0 61.4 74.4 74.4 7.2 9.7 8.0 199.5 202.6 0.00 0.0000000 81.3 83.7
2021-06-11 01:50:00 73.9 65.2 61.4 73.9 73.9 8.7 8.7 7.5 206.4 204.0 0.00 0.0000000 81.2 83.6
2021-06-11 01:55:00 73.1 66.5 61.3 73.1 73.1 5.8 8.0 6.8 205.0 205.3 0.00 0.0000000 81.1 83.5
2021-06-11 02:00:00 72.6 67.0 61.0 72.6 72.6 6.2 7.4 6.4 189.1 194.0 0.00 0.0000000 80.9 83.4
2021-06-11 02:05:00 72.7 66.6 60.9 72.7 72.7 6.3 8.0 6.8 210.0 199.2 0.00 0.0000000 80.8 83.4
2021-06-11 02:10:00 73.1 66.0 61.0 73.1 73.1 7.2 8.5 7.4 188.5 197.1 0.00 0.0000000 80.7 83.3
2021-06-11 02:15:00 73.2 65.5 60.9 73.2 73.2 7.8 9.6 8.1 201.6 200.5 0.00 0.0000000 80.6 83.2
2021-06-11 02:20:00 73.5 65.3 61.1 73.5 73.5 7.6 10.8 8.4 204.2 200.1 0.00 0.0000000 80.4 83.1
2021-06-11 02:25:00 72.8 66.4 61.0 72.8 72.8 8.0 9.0 7.8 198.1 198.8 0.00 0.0000000 80.3 83.0
2021-06-11 02:30:00 72.6 66.3 60.7 72.6 72.6 9.2 9.2 7.9 204.2 199.7 0.00 0.0000000 80.2 82.9
2021-06-11 02:35:00 72.8 66.1 60.8 72.8 72.8 8.7 9.2 8.4 201.4 201.8 0.00 0.0000000 80.1 82.8
2021-06-11 02:40:00 72.8 66.3 60.9 72.8 72.8 8.5 10.1 8.7 198.4 203.2 0.00 0.0000000 79.9 82.7
2021-06-11 02:45:00 72.4 67.0 60.9 72.4 72.4 8.3 9.4 8.3 201.9 203.0 0.00 0.0000000 79.8 82.6
2021-06-11 02:50:00 72.5 66.9 60.9 72.5 72.5 7.8 10.1 8.8 221.1 205.8 0.00 0.0000000 79.7 82.5
2021-06-11 02:55:00 72.3 67.2 60.8 72.3 72.3 8.3 10.3 8.7 204.4 207.1 0.00 0.0000000 79.6 82.4
2021-06-11 03:00:00 72.3 67.3 60.9 72.3 72.3 8.3 10.5 9.0 211.9 209.4 0.00 0.0000000 79.5 82.3
2021-06-11 03:05:00 71.7 68.0 60.6 71.7 71.7 8.3 9.7 8.2 211.5 215.7 0.00 0.0000000 79.4 82.2
2021-06-11 03:10:00 71.5 68.4 60.6 71.5 71.5 7.1 10.1 8.0 210.6 215.9 0.00 0.0000000 79.2 82.1
2021-06-11 03:15:00 71.2 69.2 60.6 71.2 71.2 7.2 9.0 7.8 213.2 221.0 0.00 0.0000000 79.1 82.0
2021-06-11 03:20:00 70.6 70.1 60.4 70.6 70.6 7.6 8.5 7.3 219.4 220.7 0.00 0.0000000 79.0 82.0
2021-06-11 03:25:00 70.1 70.5 60.1 70.1 70.1 7.6 8.7 7.4 208.6 216.1 0.00 0.0000000 78.9 81.8
2021-06-11 03:30:00 70.5 69.1 59.9 70.5 70.5 8.3 9.9 8.3 215.3 217.7 0.00 0.0000000 78.8 81.7
2021-06-11 03:35:00 70.1 69.5 59.6 70.1 70.1 8.1 9.6 8.0 230.6 217.3 0.00 0.0000000 78.7 81.7
2021-06-11 03:40:00 69.6 69.2 59.1 69.6 69.6 9.0 9.4 7.8 215.1 221.3 0.00 0.0000000 78.5 81.6
2021-06-11 03:45:00 69.3 69.6 58.9 69.3 69.3 7.4 8.7 7.6 218.0 224.1 0.00 0.0000000 78.4 81.5
2021-06-11 03:50:00 68.6 69.5 58.2 68.6 68.6 7.2 8.7 7.2 235.3 226.5 0.00 0.0000000 78.3 81.4
2021-06-11 03:55:00 69.0 67.1 57.7 69.0 69.0 8.1 9.2 8.0 229.9 225.8 0.00 0.0000000 78.2 81.3
2021-06-11 04:00:00 69.0 65.9 57.1 69.0 69.0 8.1 8.8 8.0 227.4 230.2 0.00 0.0000000 78.0 81.2
2021-06-11 04:05:00 69.1 64.3 56.6 69.1 69.1 9.0 9.9 8.3 243.9 236.4 0.00 0.0000000 77.9 81.1
2021-06-11 04:10:00 69.3 62.9 56.1 69.3 69.3 9.2 10.6 8.8 239.6 236.0 0.00 0.0000000 77.8 81.0
2021-06-11 04:15:00 69.5 62.3 56.1 69.5 69.5 7.8 9.4 8.6 233.5 230.9 0.00 0.0000000 77.7 80.9
2021-06-11 04:20:00 69.0 62.8 55.8 69.0 69.0 7.8 10.5 8.6 234.5 229.9 0.00 0.0000000 77.6 80.8
2021-06-11 04:25:00 68.3 63.4 55.4 68.3 68.3 8.8 8.8 7.7 234.8 230.7 0.00 0.0000000 77.4 80.7
2021-06-11 04:30:00 68.2 62.9 55.1 68.2 68.2 8.3 9.0 8.0 229.4 229.4 0.00 0.0000000 77.3 80.6
2021-06-11 04:35:00 68.0 62.4 54.7 68.0 68.0 8.0 9.0 7.9 228.4 233.1 0.00 0.0000000 77.2 80.5
2021-06-11 04:40:00 67.8 62.6 54.6 67.8 67.8 7.2 8.5 7.5 235.8 237.2 0.00 0.0000000 77.0 80.4
2021-06-11 04:45:00 67.4 63.1 54.4 67.4 67.4 8.0 8.3 7.6 227.2 237.8 0.00 0.0000000 76.9 80.3
2021-06-11 04:50:00 67.2 62.1 53.8 67.2 67.2 8.0 8.5 7.5 245.9 236.3 0.00 0.0000000 76.8 80.2
2021-06-11 04:55:00 67.3 60.9 53.4 67.3 67.3 7.6 8.8 7.6 234.0 231.9 0.00 0.0000000 76.7 80.1
2021-06-11 05:00:00 67.8 59.6 53.2 67.8 67.8 9.0 9.9 8.2 226.5 224.4 0.00 0.0000000 76.5 80.0
2021-06-11 05:05:00 67.4 60.0 53.0 67.4 67.4 7.8 9.4 7.8 223.9 227.0 0.00 0.0000000 76.4 79.9
2021-06-11 05:10:00 67.2 60.2 52.9 67.2 67.2 7.6 10.1 7.8 237.4 232.4 0.00 0.0000000 76.3 79.8
2021-06-11 05:15:00 66.2 61.1 52.4 66.2 66.2 7.4 8.3 7.1 253.2 250.2 0.00 0.0000000 76.2 79.7
2021-06-11 05:20:00 65.8 62.3 52.6 65.8 65.8 7.8 8.5 7.4 265.2 252.4 0.00 0.0000000 76.0 79.6
2021-06-11 05:25:00 65.8 62.7 52.8 65.8 65.8 7.2 8.7 7.5 257.3 255.0 0.00 0.0000000 75.9 79.5
2021-06-11 05:30:00 65.8 62.8 52.8 65.8 65.8 8.1 9.0 7.8 244.2 246.7 0.00 0.0000000 75.8 79.4
2021-06-11 05:35:00 66.1 62.3 52.8 66.1 66.1 9.2 9.6 8.4 249.1 242.9 0.00 0.0000000 75.7 79.3
2021-06-11 05:40:00 65.8 63.1 52.9 65.8 65.8 8.8 9.6 8.6 225.1 235.8 0.00 0.0000136 75.5 79.2
2021-06-11 05:45:00 66.1 62.4 52.9 66.1 66.1 9.6 11.3 9.8 251.6 236.9 0.00 0.0009906 75.4 79.1
2021-06-11 05:50:00 66.5 62.3 53.2 66.5 66.5 7.8 11.3 9.7 231.9 237.3 0.00 0.0020439 75.3 79.0
2021-06-11 05:55:00 66.3 62.0 52.9 66.3 66.3 8.7 9.6 8.2 245.8 240.3 0.00 0.0034463 75.2 78.9
2021-06-11 06:00:00 66.2 62.0 52.8 66.2 66.2 8.7 8.8 8.0 250.3 247.0 0.00 0.0065411 75.1 78.8
2021-06-11 06:05:00 66.3 63.7 53.6 66.3 66.3 8.1 9.4 8.1 245.5 246.9 0.00 0.0104963 75.0 78.7
2021-06-11 06:10:00 66.8 64.5 54.5 66.8 66.8 9.9 11.9 9.4 247.4 248.9 0.00 0.0121981 74.9 78.7
2021-06-11 06:15:00 67.4 64.1 54.9 67.4 67.4 9.9 11.3 9.8 232.9 245.2 0.00 0.0243098 74.8 78.5
2021-06-11 06:20:00 67.4 64.2 55.0 67.4 67.4 9.4 12.1 10.2 249.9 240.3 0.00 0.0296320 74.8 78.5
2021-06-11 06:25:00 67.8 63.6 55.0 67.8 67.8 9.6 11.5 9.6 249.9 249.7 0.00 0.0343648 74.7 78.4
2021-06-11 06:30:00 68.0 63.8 55.3 68.0 68.0 8.8 12.1 10.0 260.9 256.4 0.00 0.0354959 74.7 78.3
2021-06-11 06:35:00 68.5 63.3 55.6 68.5 68.5 10.1 12.6 10.2 241.0 253.1 0.00 0.0353520 74.7 78.2
2021-06-11 06:40:00 69.4 61.0 55.4 69.4 69.4 10.6 16.2 11.6 242.7 251.1 0.00 0.0474418 74.7 78.1
2021-06-11 06:45:00 69.5 60.2 55.1 69.5 69.5 10.6 13.1 11.2 235.5 252.1 0.00 0.0424553 74.7 78.0
2021-06-11 06:50:00 69.6 60.5 55.3 69.6 69.6 11.0 13.3 11.0 265.5 258.6 0.00 0.0563614 74.7 78.0
2021-06-11 06:55:00 69.6 58.7 54.5 69.6 69.6 11.2 13.5 11.3 254.1 259.0 0.00 0.0578569 74.7 77.9
2021-06-11 07:00:00 70.0 56.7 53.9 70.0 70.0 11.0 14.4 11.9 262.9 259.1 0.00 0.0515790 74.8 77.9
2021-06-11 07:05:00 70.6 53.9 53.1 70.6 70.6 12.1 14.6 11.8 263.2 260.9 0.00 0.0581038 74.8 77.8
2021-06-11 07:10:00 71.6 50.9 52.4 71.6 71.6 14.6 15.5 12.6 256.4 262.0 0.00 0.0667618 74.8 77.8
2021-06-11 07:15:00 72.3 49.6 52.4 72.3 72.3 13.5 17.6 14.5 265.0 263.1 0.00 0.0756550 74.9 77.8
2021-06-11 07:20:00 72.9 46.7 51.3 72.9 72.9 13.3 15.8 13.3 261.8 262.1 0.00 0.0816216 74.9 77.8
2021-06-11 07:25:00 73.5 41.0 48.4 73.5 73.5 14.6 15.6 13.6 266.5 263.4 0.00 0.0896642 75.0 77.8
2021-06-11 07:30:00 74.2 37.6 46.7 74.2 74.2 10.6 16.0 13.6 271.3 261.6 0.00 0.0953713 75.1 77.7
2021-06-11 07:35:00 74.9 32.5 43.4 74.9 74.9 15.3 15.6 13.2 246.8 261.4 0.00 0.1013450 75.2 77.7
2021-06-11 07:40:00 75.6 30.3 42.2 75.6 75.6 15.3 16.2 13.7 269.8 260.8 0.00 0.1074974 75.3 77.7
2021-06-11 07:45:00 76.0 28.7 41.2 76.0 76.0 15.6 15.8 14.2 259.8 259.3 0.00 0.1134191 75.5 77.7
2021-06-11 07:50:00 76.7 25.9 39.1 76.7 76.7 15.1 15.8 13.6 255.3 258.6 0.00 0.1204824 75.7 77.8
2021-06-11 07:55:00 77.8 24.2 38.3 77.8 77.8 13.3 16.2 13.4 270.8 265.0 0.00 0.1275062 75.8 77.8
2021-06-11 08:00:00 78.8 20.7 35.3 78.8 78.8 13.0 15.6 13.6 267.6 263.4 0.00 0.1205222 76.0 77.8
2021-06-11 08:05:00 80.1 18.2 33.0 80.1 80.1 13.7 15.1 12.8 270.9 269.3 0.00 0.1323531 76.2 77.8
2021-06-11 08:10:00 80.4 16.9 31.5 80.4 80.4 13.5 16.5 14.2 271.7 270.3 0.00 0.1274206 76.5 77.9
2021-06-11 08:15:00 81.6 15.9 30.8 81.6 81.6 12.8 16.7 14.0 274.4 271.4 0.00 0.1546849 76.7 77.9
2021-06-11 08:20:00 82.3 14.4 28.9 82.3 82.3 15.1 16.2 14.2 273.8 273.0 0.00 0.1459660 77.0 78.0
2021-06-11 08:25:00 83.6 14.9 30.9 83.6 83.6 9.6 17.4 13.1 273.2 276.2 0.00 0.1515351 77.3 78.0
2021-06-11 08:30:00 84.9 12.3 27.3 84.9 84.9 15.6 16.2 13.7 282.1 283.9 0.00 0.1541568 77.5 78.1
2021-06-11 08:35:00 85.4 12.3 27.6 85.4 85.4 13.7 17.2 14.0 305.8 291.7 0.00 0.1394406 77.8 78.2
2021-06-11 08:40:00 85.6 10.9 24.9 85.6 85.6 14.9 15.8 13.9 297.8 290.9 0.00 0.1268977 78.1 78.3
2021-06-11 08:45:00 86.2 11.7 27.0 86.2 86.2 13.7 16.5 14.3 279.3 287.7 0.00 0.1400899 78.4 78.4
2021-06-11 08:50:00 87.4 11.9 28.3 87.4 87.4 9.4 16.2 13.0 287.6 289.7 0.00 0.1749016 78.7 78.5
2021-06-11 08:55:00 87.9 10.7 26.2 87.9 87.9 14.6 15.6 12.9 283.8 285.0 0.00 0.1800148 79.0 78.6
2021-06-11 09:00:00 89.1 9.4 23.9 89.1 89.1 11.3 16.9 13.5 299.8 291.4 0.00 0.1906544 79.3 78.7
2021-06-11 09:05:00 89.8 9.7 25.2 89.8 89.8 13.0 15.3 12.9 301.9 290.2 0.00 0.1983528 79.6 78.8
2021-06-11 09:10:00 90.6 9.7 26.0 90.6 90.6 10.1 16.9 12.5 312.8 300.7 0.00 0.2089272 80.0 78.9
2021-06-11 09:15:00 90.5 8.3 22.1 90.5 90.5 15.3 16.4 13.6 307.0 307.0 0.00 0.1888895 80.4 79.1
2021-06-11 09:20:00 91.4 9.2 25.3 91.4 91.4 12.1 16.9 13.5 327.0 307.5 0.00 0.2153076 80.8 79.2
2021-06-11 09:25:00 91.8 8.4 23.3 91.8 91.8 16.2 17.2 14.0 322.3 317.5 0.00 0.2217940 81.2 79.4
2021-06-11 09:30:00 92.0 9.9 27.4 92.0 92.0 11.5 19.2 14.4 324.5 321.0 0.00 0.2285307 81.6 79.6
2021-06-11 09:35:00 92.7 8.1 23.2 92.7 92.7 18.0 18.7 13.7 330.7 325.7 0.00 0.2421569 82.1 79.8
2021-06-11 09:40:00 92.6 9.0 25.4 92.6 92.6 13.1 18.0 13.9 322.3 327.9 0.00 0.1619364 82.5 80.0
2021-06-11 09:45:00 91.6 8.7 24.0 91.6 91.6 14.0 16.2 13.3 325.7 321.4 0.00 0.1408491 82.9 80.2
2021-06-11 09:50:00 93.1 9.2 26.5 93.1 93.1 13.1 15.8 12.5 338.3 326.4 0.00 0.2130416 83.3 80.3
2021-06-11 09:55:00 93.6 8.4 24.7 93.6 93.6 14.6 18.1 14.7 328.4 333.0 0.00 0.2586088 83.6 80.6
2021-06-11 10:00:00 94.7 7.9 24.2 94.7 94.7 14.0 17.1 12.9 330.2 341.0 0.00 0.2490517 83.9 80.8
2021-06-11 10:05:00 94.4 7.1 21.1 94.4 94.4 12.8 15.6 13.1 321.8 336.8 0.00 0.2574854 84.3 81.0
2021-06-11 10:10:00 95.1 7.6 23.3 95.1 95.1 14.0 14.2 11.0 334.5 327.8 0.00 0.2636543 84.7 81.2
2021-06-11 10:15:00 95.6 6.7 20.8 95.6 95.6 12.4 15.8 11.2 347.8 326.5 0.00 0.2641215 85.2 81.4
2021-06-11 10:20:00 96.2 5.6 17.1 96.2 96.2 11.7 14.9 11.7 8.1 350.7 0.00 0.2703266 85.6 81.6
2021-06-11 10:25:00 96.5 6.5 20.6 96.5 96.5 11.9 15.3 10.3 347.7 357.9 0.00 0.2736835 86.0 81.8
2021-06-11 10:30:00 96.0 5.2 15.2 96.0 96.0 15.1 20.3 13.1 347.0 359.4 0.00 0.2723422 86.5 82.1
2021-06-11 10:35:00 95.6 6.2 18.8 95.6 95.6 14.0 19.2 13.4 348.1 348.5 0.00 0.2774388 87.0 82.4
2021-06-11 10:40:00 94.4 7.4 22.4 94.4 94.4 14.4 17.6 13.7 12.7 5.1 0.00 0.2779742 87.4 82.6
2021-06-11 10:45:00 93.9 7.3 21.6 93.9 93.9 11.5 18.5 12.1 348.1 9.1 0.00 0.2825920 87.9 82.9
2021-06-11 10:50:00 93.5 7.4 21.6 93.5 93.5 12.1 18.5 12.6 16.9 9.0 0.00 0.2855062 88.3 83.1
2021-06-11 10:55:00 93.5 7.2 21.0 93.5 93.5 13.3 18.3 14.6 340.4 346.8 0.00 0.2867085 88.6 83.4
2021-06-11 11:00:00 92.9 8.3 23.7 92.9 92.9 11.9 17.8 12.5 37.9 6.7 0.00 0.2900785 88.8 83.7
2021-06-11 11:05:00 92.3 8.7 24.4 92.3 92.3 9.4 16.2 11.0 27.7 15.0 0.00 0.2934852 88.9 83.9
2021-06-11 11:10:00 91.8 8.3 22.8 91.8 91.8 9.6 16.2 11.7 13.6 22.6 0.00 0.2954709 88.9 84.2
2021-06-11 11:15:00 92.3 10.3 28.6 92.3 92.3 13.3 14.7 10.6 51.4 11.9 0.00 0.2981674 88.9 84.5
2021-06-11 11:20:00 91.9 10.7 29.2 91.9 91.9 7.6 17.4 11.3 6.2 4.9 0.00 0.3001378 88.9 84.7
2021-06-11 11:25:00 91.3 11.7 31.0 91.3 91.3 7.6 14.6 11.2 11.9 22.0 0.00 0.3023298 88.7 85.0
2021-06-11 11:30:00 91.9 12.1 32.2 91.9 91.9 12.6 15.1 11.8 20.4 359.7 0.00 0.3047826 88.6 85.2
2021-06-11 11:35:00 91.5 12.7 33.1 91.5 91.5 6.9 13.5 9.7 1.6 20.8 0.00 0.3075014 88.5 85.5
2021-06-11 11:40:00 91.3 12.5 32.5 91.3 91.3 10.1 16.0 11.4 21.8 27.4 0.00 0.3094639 88.3 85.7
2021-06-11 11:45:00 91.1 14.0 35.3 91.1 91.1 9.7 14.2 11.0 32.8 25.1 0.00 0.3114257 88.1 86.0
2021-06-11 11:50:00 90.6 13.8 34.5 90.6 90.6 7.4 16.7 10.4 54.5 20.7 0.00 0.3113684 87.9 86.2
2021-06-11 11:55:00 92.0 14.3 36.5 92.0 92.0 9.4 15.1 10.0 339.7 14.7 0.00 0.3119996 87.8 86.5
2021-06-11 12:00:00 91.8 14.9 37.3 91.8 91.8 10.5 14.4 10.8 51.6 29.2 0.00 0.3124450 87.6 86.8
2021-06-11 12:05:00 92.1 16.1 39.5 92.1 92.1 13.9 15.3 11.3 18.6 22.6 0.00 0.3143701 87.5 87.0
2021-06-11 12:10:00 91.9 16.7 40.4 91.9 91.9 15.1 16.7 10.9 65.2 26.8 0.00 0.3153620 87.5 87.2
2021-06-11 12:15:00 91.5 16.0 39.0 91.5 91.5 10.5 19.4 11.1 32.3 28.5 0.00 0.3161079 87.6 87.5
2021-06-11 12:20:00 90.8 17.1 40.2 90.8 90.8 8.1 16.2 11.3 62.0 27.0 0.00 0.3183122 87.8 87.7
2021-06-11 12:25:00 91.3 18.6 42.7 91.3 91.3 11.9 16.9 10.4 49.0 39.6 0.00 0.3196552 88.2 87.9
2021-06-11 12:30:00 91.7 18.9 43.5 91.7 91.7 10.5 16.4 10.7 64.5 37.1 0.00 0.3167746 88.7 88.2
2021-06-11 12:35:00 91.9 19.2 44.0 91.9 91.9 14.6 18.9 12.9 4.7 29.6 0.00 0.3179727 89.3 88.4
2021-06-11 12:40:00 91.0 19.4 43.6 91.0 91.0 10.1 17.1 10.9 33.2 22.4 0.00 0.3203326 89.9 88.6
2021-06-11 12:45:00 91.2 18.7 42.7 91.2 91.2 13.9 16.0 10.9 17.0 23.9 0.00 0.3218835 90.4 88.8
2021-06-11 12:50:00 91.5 17.6 41.4 91.5 91.5 18.1 19.8 13.7 58.9 41.8 0.00 0.3170737 91.0 88.9
2021-06-11 12:55:00 92.6 16.9 41.4 92.6 92.6 11.5 16.2 10.4 27.4 30.6 0.00 0.3164166 91.5 89.1
2021-06-11 13:00:00 92.2 17.1 41.3 92.2 92.2 13.1 17.6 13.0 56.6 40.8 0.00 0.3059877 92.0 89.3
2021-06-11 13:05:00 92.2 17.0 41.2 92.2 92.2 15.6 15.6 10.1 28.8 25.9 0.00 0.3290346 92.4 89.4
2021-06-11 13:10:00 92.7 18.3 43.5 92.7 92.7 14.0 17.2 12.0 22.2 29.6 0.00 0.3234757 92.9 89.6
2021-06-11 13:15:00 91.9 17.5 41.6 91.9 91.9 10.1 17.4 12.6 50.3 36.8 0.00 0.3053436 93.3 89.8
2021-06-11 13:20:00 91.6 17.6 41.6 91.6 91.6 19.6 19.6 14.6 74.5 36.4 0.00 0.2936530 93.7 90.0
2021-06-11 13:25:00 92.3 17.2 41.5 92.3 92.3 11.0 26.4 13.5 55.5 35.8 0.00 0.2742095 94.2 90.1
2021-06-11 13:30:00 92.3 17.7 42.2 92.3 92.3 10.8 17.8 14.0 345.7 41.3 0.00 0.3485919 94.5 90.3
2021-06-11 13:35:00 92.7 16.2 40.4 92.7 92.7 13.0 20.1 13.4 0.7 28.7 0.00 0.3179887 94.7 90.5
2021-06-11 13:40:00 92.7 15.5 39.1 92.7 92.7 16.2 20.1 13.0 22.5 41.9 0.00 0.2826100 95.0 90.7
2021-06-11 13:45:00 91.5 15.0 37.3 91.5 91.5 14.0 20.6 13.1 29.3 44.8 0.00 0.2305784 95.3 90.8
2021-06-11 13:50:00 92.2 15.8 39.3 92.2 92.2 14.9 19.0 11.2 61.7 38.7 0.00 0.2482076 95.6 91.0
2021-06-11 13:55:00 92.4 15.1 38.2 92.4 92.4 13.5 18.0 12.5 35.0 43.8 0.00 0.3265409 95.8 91.2
2021-06-11 14:00:00 92.9 14.9 38.2 92.9 92.9 11.0 13.7 10.8 324.3 26.2 0.00 0.3267458 95.9 91.3
2021-06-11 14:05:00 93.1 14.3 37.3 93.1 93.1 14.7 19.6 14.5 72.8 45.3 0.00 0.3223326 96.1 91.5
2021-06-11 14:10:00 92.1 13.8 35.7 92.1 92.1 10.8 17.1 11.7 45.5 48.5 0.00 0.3178121 96.4 91.6
2021-06-11 14:15:00 93.8 14.1 37.6 93.8 93.8 16.4 16.4 12.5 66.2 50.4 0.00 0.3079357 96.7 91.8
2021-06-11 14:20:00 92.8 13.3 35.3 92.8 92.8 16.4 17.8 14.6 55.6 58.6 0.00 0.3031572 96.9 91.9
2021-06-11 14:25:00 93.7 12.7 34.9 93.7 93.7 12.1 16.0 10.8 67.4 34.8 0.00 0.3044010 97.2 92.1
2021-06-11 14:30:00 93.7 12.5 34.4 93.7 93.7 10.3 16.2 9.8 52.7 29.7 0.00 0.3110224 97.4 92.2
2021-06-11 14:35:00 94.5 13.0 36.2 94.5 94.5 10.1 14.0 8.9 0.6 21.0 0.00 0.3066205 97.7 92.4
2021-06-11 14:40:00 94.5 13.3 36.6 94.5 94.5 9.7 15.3 10.1 51.3 30.4 0.00 0.2903388 98.0 92.5
2021-06-11 14:45:00 93.2 12.4 33.8 93.2 93.2 11.0 15.1 10.6 32.0 29.8 0.00 0.2873557 98.3 92.7
2021-06-11 14:50:00 93.7 13.7 36.8 93.7 93.7 10.8 17.4 12.2 32.9 30.3 0.00 0.2736425 98.5 92.9
2021-06-11 14:55:00 93.2 13.3 35.7 93.2 93.2 11.5 15.5 11.4 349.4 3.8 0.00 0.2286502 98.7 93.0
2021-06-11 15:00:00 93.5 12.1 33.5 93.5 93.5 8.8 14.9 9.6 59.5 23.5 0.00 0.2830870 98.9 93.2
2021-06-11 15:05:00 94.0 12.7 35.1 94.0 94.0 6.0 12.4 8.7 70.8 23.0 0.00 0.2654701 99.1 93.3
2021-06-11 15:10:00 93.8 12.7 34.8 93.8 93.8 12.6 13.0 9.4 47.9 31.5 0.00 0.2674519 99.1 93.5
2021-06-11 15:15:00 93.4 12.2 33.6 93.4 93.4 9.9 15.1 10.1 34.0 25.6 0.00 0.2598701 99.3 93.7
2021-06-11 15:20:00 94.7 11.7 33.6 94.7 94.7 8.3 14.2 9.5 11.1 31.2 0.00 0.2680875 99.4 93.7
2021-06-11 15:25:00 95.0 11.9 34.1 95.0 95.0 11.2 12.6 9.0 345.6 11.4 0.00 0.2622285 99.6 93.9
2021-06-11 15:30:00 94.2 12.1 34.1 94.2 94.2 9.7 13.5 10.4 64.5 32.6 0.00 0.2577629 99.7 94.0
2021-06-11 15:35:00 93.9 12.2 34.0 93.9 93.9 11.2 18.3 11.5 20.0 29.6 0.00 0.2577853 99.8 94.2
2021-06-11 15:40:00 94.0 11.0 31.6 94.0 94.0 8.1 15.3 10.7 25.7 359.3 0.00 0.2584693 99.9 94.2
2021-06-11 15:45:00 94.3 11.8 33.4 94.3 94.3 6.5 12.8 8.6 5.3 27.9 0.00 0.2527728 100.0 94.3
2021-06-11 15:50:00 94.1 11.7 33.1 94.1 94.1 5.6 13.7 9.5 34.0 23.2 0.00 0.2327399 100.1 94.4
2021-06-11 15:55:00 95.5 10.9 32.5 95.5 95.5 7.6 16.2 8.5 44.8 29.8 0.00 0.2026294 100.2 94.5
2021-06-11 16:00:00 93.8 11.6 32.7 93.8 93.8 10.5 13.3 9.7 3.6 24.2 0.00 0.2147952 100.2 94.7
2021-06-11 16:05:00 93.8 11.5 32.5 93.8 93.8 13.7 13.7 8.7 16.0 15.2 0.00 0.2372886 100.3 94.7
2021-06-11 16:10:00 94.2 10.7 30.9 94.2 94.2 9.2 12.8 8.9 347.6 11.8 0.00 0.2332571 100.3 94.8
2021-06-11 16:15:00 95.1 11.1 32.5 95.1 95.1 12.1 14.9 8.9 7.5 11.5 0.00 0.2321977 100.3 94.9
2021-06-11 16:20:00 94.1 11.7 33.1 94.1 94.1 8.0 15.6 9.5 348.0 359.7 0.00 0.1546724 100.3 95.0
2021-06-11 16:25:00 93.7 11.4 32.3 93.7 93.7 10.1 10.6 7.9 3.8 22.1 0.00 0.1429170 100.3 95.0
2021-06-11 16:30:00 92.7 11.3 31.3 92.7 92.7 9.6 14.0 9.8 21.2 25.5 0.00 0.0851673 100.3 95.1
2021-06-11 16:35:00 92.2 12.0 32.4 92.2 92.2 12.6 12.6 9.5 57.1 45.7 0.00 0.0768356 100.2 95.1
2021-06-11 16:40:00 92.6 12.3 33.1 92.6 92.6 10.1 13.1 9.9 25.7 42.4 0.00 0.0811344 100.0 95.1
2021-06-11 16:45:00 91.9 12.2 32.4 91.9 91.9 16.0 19.6 13.5 35.3 50.5 0.00 0.0837584 99.7 95.2
2021-06-11 16:50:00 91.8 13.0 33.9 91.8 91.8 12.1 17.1 12.5 21.1 44.3 0.00 0.0847213 99.3 95.2
2021-06-11 16:55:00 91.6 13.1 33.9 91.6 91.6 10.8 14.6 9.7 25.4 32.2 0.00 0.0812046 99.0 95.1
2021-06-11 17:00:00 91.4 13.2 34.1 91.4 91.4 9.2 16.4 11.2 55.1 35.5 0.00 0.0805383 98.6 95.1
2021-06-11 17:05:00 91.5 13.3 34.2 91.5 91.5 14.2 17.4 11.2 46.2 41.7 0.00 0.0779133 98.2 95.0
2021-06-11 17:10:00 91.1 13.7 34.7 91.1 91.1 14.7 16.4 12.7 28.2 45.0 0.00 0.0706002 97.9 94.9
2021-06-11 17:15:00 91.1 13.5 34.4 91.1 91.1 16.0 19.0 15.6 36.2 49.6 0.00 0.0690504 97.5 94.8
2021-06-11 17:20:00 90.8 14.1 35.1 90.8 90.8 16.0 19.0 16.1 52.2 54.5 0.00 0.0672000 97.2 94.6
2021-06-11 17:25:00 90.7 14.2 35.3 90.7 90.7 17.4 20.3 16.7 44.4 52.5 0.00 0.0664415 96.9 94.5
2021-06-11 17:30:00 90.7 14.4 35.6 90.7 90.7 14.2 19.4 14.0 58.7 48.6 0.00 0.0673277 96.5 94.4
2021-06-11 17:35:00 90.5 14.4 35.5 90.5 90.5 14.4 19.2 15.5 63.2 50.3 0.00 0.0698455 96.2 94.3
2021-06-11 17:40:00 90.7 14.6 36.1 90.7 90.7 17.8 18.5 15.0 59.2 51.3 0.00 0.0752409 96.0 94.1
2021-06-11 17:45:00 90.4 15.0 36.5 90.4 90.4 17.8 20.5 16.0 48.3 46.7 0.00 0.0619610 95.6 94.0
2021-06-11 17:50:00 89.6 15.4 36.5 89.6 89.6 11.5 18.7 14.8 53.2 45.0 0.00 0.0551670 95.4 93.8
2021-06-11 17:55:00 89.5 15.8 37.1 89.5 89.5 15.8 19.0 16.4 52.9 48.8 0.00 0.0534215 95.1 93.7
2021-06-11 18:00:00 89.5 15.8 37.1 89.5 89.5 19.0 19.0 16.4 51.4 54.3 0.00 0.0544962 94.8 93.6
2021-06-11 18:05:00 89.1 16.3 37.5 89.1 89.1 14.7 19.9 16.7 50.7 51.6 0.00 0.0553850 94.6 93.4
2021-06-11 18:10:00 88.9 16.5 37.8 88.9 88.9 22.6 22.6 16.8 62.1 60.7 0.00 0.0502189 94.3 93.3
2021-06-11 18:15:00 88.8 16.3 37.3 88.8 88.8 18.5 20.1 16.9 56.2 57.7 0.00 0.0465347 94.0 93.1
2021-06-11 18:20:00 88.3 16.5 37.3 88.3 88.3 17.4 21.9 17.3 65.5 58.8 0.00 0.0438204 93.8 93.0
2021-06-11 18:25:00 88.0 16.7 37.4 88.0 88.0 14.7 20.8 17.4 55.9 61.7 0.00 0.0417550 93.6 92.8
2021-06-11 18:30:00 88.0 16.7 37.4 88.0 88.0 19.0 20.3 17.3 44.3 54.3 0.00 0.0412470 93.3 92.7
2021-06-11 18:35:00 87.8 17.0 37.6 87.8 87.8 16.7 19.9 17.0 60.3 61.3 0.00 0.0384226 93.1 92.6
2021-06-11 18:40:00 87.5 17.4 37.9 87.5 87.5 14.6 19.2 16.2 59.6 58.8 0.00 0.0339631 92.8 92.4
2021-06-11 18:45:00 87.4 17.7 38.2 87.4 87.4 19.6 20.8 16.1 57.6 62.7 0.00 0.0302006 92.6 92.3
2021-06-11 18:50:00 86.9 17.9 38.1 86.9 86.9 15.1 19.4 16.3 64.2 65.2 0.00 0.0277939 92.4 92.1
2021-06-11 18:55:00 86.8 18.3 38.7 86.8 86.8 17.4 19.2 15.5 62.3 61.5 0.00 0.0257761 92.1 92.0
2021-06-11 19:00:00 86.6 18.5 38.7 86.6 86.6 15.1 19.4 15.8 65.2 62.6 0.00 0.0231950 91.9 91.9
2021-06-11 19:05:00 86.4 19.5 40.0 86.4 86.4 13.1 20.6 15.8 68.4 63.7 0.00 0.0207944 91.6 91.7
2021-06-11 19:10:00 85.8 20.3 40.6 85.8 85.8 11.9 21.0 15.3 75.5 66.4 0.00 0.0212347 91.4 91.5
2021-06-11 19:15:00 85.9 20.0 40.2 85.9 85.9 14.9 17.6 14.9 66.3 65.7 0.00 0.0400183 91.1 91.4
2021-06-11 19:20:00 85.9 20.2 40.4 85.9 85.9 14.4 19.4 16.3 73.2 64.3 0.00 0.0361403 90.9 91.3
2021-06-11 19:25:00 85.9 20.3 40.5 85.9 85.9 16.0 19.2 15.0 64.3 62.9 0.00 0.0279259 90.7 91.1
2021-06-11 19:30:00 85.6 20.3 40.3 85.6 85.6 16.4 19.8 15.7 54.3 63.6 0.00 0.0193626 90.5 90.9
2021-06-11 19:35:00 85.4 20.4 40.3 85.4 85.4 17.4 20.1 16.9 59.1 61.8 0.00 0.0163770 90.3 90.8
2021-06-11 19:40:00 85.0 20.9 40.5 85.0 85.0 15.8 20.6 16.3 70.9 62.4 0.00 0.0140522 90.1 90.7
2021-06-11 19:45:00 84.7 21.1 40.6 84.7 84.7 17.1 18.9 15.2 61.3 61.7 0.00 0.0115749 89.9 90.5
2021-06-11 19:50:00 84.2 21.4 40.5 84.2 84.2 14.6 18.5 14.3 70.3 61.0 0.00 0.0099704 89.7 90.4
2021-06-11 19:55:00 83.9 21.6 40.5 83.9 83.9 13.5 16.2 14.3 62.2 61.3 0.00 0.0072531 89.5 90.2
2021-06-11 20:00:00 83.5 21.8 40.4 83.5 83.5 14.0 17.4 13.2 60.6 55.9 0.00 0.0047035 89.3 90.1
2021-06-11 20:05:00 83.2 22.1 40.5 83.2 83.2 14.0 16.2 13.4 55.5 60.2 0.00 0.0036934 89.1 90.0
2021-06-11 20:10:00 82.7 22.7 40.8 82.7 82.7 11.2 14.4 12.3 57.3 62.8 0.00 0.0032117 88.9 89.9
2021-06-11 20:15:00 82.2 23.8 41.6 82.2 82.2 13.3 14.6 11.7 54.3 61.9 0.00 0.0022574 88.6 89.7
2021-06-11 20:20:00 81.8 24.1 41.6 81.8 81.8 9.7 14.4 11.7 38.9 59.3 0.00 0.0002412 88.4 89.6
2021-06-11 20:25:00 81.2 24.3 41.4 81.2 81.2 9.4 12.4 9.9 57.2 56.2 0.00 0.0000000 88.3 89.4
2021-06-11 20:30:00 81.1 24.9 41.8 81.1 81.1 13.3 14.2 11.7 65.2 58.1 0.00 0.0000000 88.0 89.3
2021-06-11 20:35:00 80.8 25.6 42.3 80.8 80.8 12.4 15.3 12.5 59.0 56.7 0.00 0.0000000 87.8 89.2
2021-06-11 20:40:00 80.5 26.2 42.7 80.5 80.5 13.9 15.8 12.4 60.6 59.1 0.00 0.0000000 87.6 89.0
2021-06-11 20:45:00 80.0 26.9 42.9 80.0 80.0 11.2 14.6 11.8 59.0 55.6 0.00 0.0000000 87.4 88.8
2021-06-11 20:50:00 79.8 27.7 43.5 79.8 79.8 10.5 14.9 12.6 56.9 56.0 0.00 0.0000000 87.2 88.7
2021-06-11 20:55:00 79.3 28.4 43.8 79.3 79.3 11.9 13.7 11.5 52.9 55.0 0.00 0.0000000 87.0 88.6
2021-06-11 21:00:00 79.2 28.9 44.0 79.2 79.2 12.8 14.4 12.2 53.2 59.6 0.00 0.0000000 86.8 88.4
2021-06-11 21:05:00 78.8 29.4 44.2 78.8 78.8 11.0 13.1 11.1 58.2 59.0 0.00 0.0000000 86.6 88.3
2021-06-11 21:10:00 78.4 29.8 44.2 78.4 78.4 11.5 12.6 11.0 71.3 56.0 0.00 0.0000000 86.3 88.2
2021-06-11 21:15:00 78.1 30.4 44.5 78.1 78.1 11.0 12.6 10.7 53.3 53.7 0.00 0.0000000 86.2 88.0
2021-06-11 21:20:00 77.7 30.9 44.6 77.7 77.7 13.9 13.9 11.0 46.6 54.6 0.00 0.0000000 86.0 87.9
2021-06-11 21:25:00 77.6 31.3 44.8 77.6 77.6 11.5 13.5 11.3 36.6 51.0 0.00 0.0000000 85.8 87.7
2021-06-11 21:30:00 77.4 31.7 45.0 77.4 77.4 10.1 13.7 10.9 50.7 48.0 0.00 0.0000000 85.6 87.6
2021-06-11 21:35:00 76.7 32.6 45.1 76.7 76.7 9.6 11.7 9.9 46.5 48.4 0.00 0.0000000 85.4 87.5
2021-06-11 21:40:00 76.5 32.7 45.1 76.5 76.5 10.3 11.3 9.7 24.5 44.2 0.00 0.0000000 85.2 87.3
2021-06-11 21:45:00 76.2 33.5 45.4 76.2 76.2 11.3 11.3 9.2 55.8 47.1 0.00 0.0000000 85.0 87.2
2021-06-11 21:50:00 75.9 34.2 45.7 75.9 75.9 9.9 12.2 10.1 46.9 54.0 0.00 0.0000000 84.9 87.0
2021-06-11 21:55:00 75.6 34.6 45.7 75.6 75.6 9.9 13.0 10.1 47.1 52.2 0.00 0.0000000 84.7 86.9
2021-06-11 22:00:00 75.6 34.8 45.9 75.6 75.6 9.6 13.7 10.9 54.8 52.0 0.00 0.0000000 84.6 86.8
2021-06-11 22:05:00 75.4 35.2 46.0 75.4 75.4 10.5 11.3 9.8 52.5 49.3 0.00 0.0000000 84.3 86.7
2021-06-11 22:10:00 75.4 35.3 46.1 75.4 75.4 9.7 11.9 10.1 49.9 49.3 0.00 0.0000000 84.2 86.5
2021-06-11 22:15:00 75.2 35.7 46.2 75.2 75.2 8.3 12.6 10.4 47.7 50.9 0.00 0.0000000 84.0 86.4
2021-06-11 22:20:00 75.1 35.9 46.3 75.1 75.1 11.0 12.4 10.6 48.7 50.8 0.00 0.0000000 83.9 86.3
2021-06-11 22:25:00 75.2 35.8 46.3 75.2 75.2 9.0 13.9 11.7 39.1 48.4 0.00 0.0000000 83.7 86.1
2021-06-11 22:30:00 74.8 36.3 46.2 74.8 74.8 9.0 12.1 10.1 47.0 50.6 0.00 0.0000000 83.6 86.0
2021-06-11 22:35:00 74.6 36.8 46.5 74.6 74.6 11.7 12.1 10.2 50.8 49.4 0.00 0.0000000 83.4 85.9
2021-06-11 22:40:00 74.5 37.1 46.6 74.5 74.5 9.7 12.6 10.6 57.1 49.3 0.00 0.0000000 83.3 85.7
2021-06-11 22:45:00 74.5 37.4 46.8 74.5 74.5 12.1 13.0 10.9 45.1 49.1 0.00 0.0000000 83.1 85.6
2021-06-11 22:50:00 74.3 37.8 46.9 74.3 74.3 8.7 12.6 9.8 32.3 44.0 0.00 0.0000000 83.0 85.5
2021-06-11 22:55:00 74.2 38.4 47.2 74.2 74.2 8.0 9.6 8.2 53.2 45.4 0.00 0.0000000 82.9 85.4
2021-06-11 23:00:00 74.1 38.8 47.4 74.1 74.1 9.2 10.5 8.6 39.8 46.6 0.00 0.0000000 82.7 85.3
2021-06-11 23:05:00 74.0 39.7 47.9 74.0 74.0 10.3 10.6 8.0 60.7 42.0 0.00 0.0000000 82.5 85.1
2021-06-11 23:10:00 74.0 40.9 48.8 74.0 74.0 8.1 11.2 8.5 38.2 45.7 0.00 0.0000000 82.4 85.0
2021-06-11 23:15:00 73.9 41.9 49.3 73.9 73.9 8.8 10.8 8.4 41.4 43.7 0.00 0.0000000 82.3 84.9
2021-06-11 23:20:00 73.7 42.8 49.7 73.7 73.7 9.7 11.0 8.6 31.1 44.8 0.00 0.0000000 82.1 84.8
2021-06-11 23:25:00 73.6 43.8 50.2 73.6 73.6 11.2 13.3 10.6 52.0 52.5 0.00 0.0000000 82.0 84.7
2021-06-11 23:30:00 73.5 44.2 50.5 73.5 73.5 9.9 13.7 10.5 36.6 46.9 0.00 0.0000000 81.9 84.6
2021-06-11 23:35:00 73.2 44.7 50.4 73.2 73.2 9.9 13.0 10.9 56.2 49.4 0.00 0.0000000 81.8 84.5
2021-06-11 23:40:00 73.2 45.3 50.8 73.2 73.2 6.5 12.1 9.3 55.8 45.2 0.00 0.0000000 81.6 84.3
2021-06-11 23:45:00 73.2 46.3 51.3 73.2 73.2 10.3 11.2 8.2 39.6 40.5 0.00 0.0000000 81.5 84.2
2021-06-11 23:50:00 73.0 46.8 51.5 73.0 73.0 6.7 11.3 8.6 54.3 46.1 0.00 0.0000000 81.4 84.1
2021-06-11 23:55:00 72.8 47.7 51.7 72.8 72.8 5.3 9.4 7.2 38.1 40.2 0.00 0.0000000 81.3 84.0
2021-06-12 00:00:00 72.8 48.1 52.0 72.8 72.8 6.7 10.6 7.9 59.9 42.5 0.00 0.0000000 81.2 83.9

Data is courtesy of the NM Climate Center. DO NOT USE IN LEGAL PROCEEDINGS.